Time;durP1;ratioP1;P1;durP2;ratioP2;P2;SDS_P1;SDS_P2;PMS_P1;PMS_P2;Temp;Humidity;BMP_temperature;BMP_pressure;BME280_temperature;BME280_humidity;BME280_pressure;Samples;Min_cycle;Max_cycle;Signal;HPM_P1;HPM_P2
2021/01/27 00:00:58;;;;;;;40.67;26.77;;;;;;;3.07;60.54;99361.88;5027158;28;20045;-72
2021/01/27 00:03:25;;;;;;;39.38;30.00;;;;;;;3.05;60.43;99358.50;5026254;28;20049;-78
2021/01/27 00:05:53;;;;;;;52.05;33.17;;;;;;;2.99;60.78;99370.13;5032375;28;20079;-75
2021/01/27 00:08:22;;;;;;;42.58;20.45;;;;;;;3.02;60.53;99363.88;5029660;28;20045;-74
2021/01/27 00:10:48;;;;;;;35.97;26.23;;;;;;;3.03;60.68;99355.16;5024624;28;20045;-74
2021/01/27 00:13:17;;;;;;;33.65;22.58;;;;;;;3.06;60.57;99368.00;5026807;28;20208;-74
2021/01/27 00:15:46;;;;;;;38.08;24.90;;;;;;;3.09;60.82;99373.06;5027886;28;20065;-74
2021/01/27 00:18:15;;;;;;;46.75;25.95;;;;;;;3.09;60.79;99365.22;5026927;28;20091;-74
2021/01/27 00:20:42;;;;;;;35.90;23.50;;;;;;;3.05;60.72;99366.34;5026523;28;20052;-75
2021/01/27 00:23:08;;;;;;;40.38;26.10;;;;;;;3.11;60.73;99365.97;5025676;28;20054;-74
2021/01/27 00:25:37;;;;;;;37.97;27.83;;;;;;;3.02;61.30;99361.28;5025726;28;20776;-72
2021/01/27 00:28:05;;;;;;;33.47;22.00;;;;;;;3.05;61.25;99358.50;5026297;28;20058;-74
2021/01/27 00:30:34;;;;;;;43.10;30.67;;;;;;;2.99;62.06;99367.53;5026787;28;20072;-74
2021/01/27 00:33:03;;;;;;;46.00;29.65;;;;;;;2.90;62.68;99369.78;5027319;28;20060;-75
2021/01/27 00:35:32;;;;;;;35.58;19.13;;;;;;;2.91;62.70;99374.09;5027473;28;20497;-70
2021/01/27 00:38:00;;;;;;;43.15;21.30;;;;;;;2.91;62.80;99363.66;5027848;28;20045;-74
2021/01/27 00:40:27;;;;;;;43.70;25.38;;;;;;;2.92;63.02;99367.94;5022552;28;20053;-72
2021/01/27 00:42:54;;;;;;;43.17;34.50;;;;;;;2.86;63.47;99371.72;5027458;28;20051;-74
2021/01/27 00:45:21;;;;;;;45.53;22.55;;;;;;;2.89;63.48;99368.13;5026016;28;20052;-70
2021/01/27 00:47:47;;;;;;;42.97;19.08;;;;;;;2.94;63.18;99368.72;5025733;28;20045;-77
2021/01/27 00:50:16;;;;;;;46.90;26.20;;;;;;;2.91;63.45;99363.66;5025856;28;20053;-72
2021/01/27 00:52:42;;;;;;;42.03;26.83;;;;;;;2.86;63.38;99367.38;5026022;28;20045;-72
2021/01/27 00:55:15;;;;;;;47.17;26.48;;;;;;;2.81;63.77;99364.16;5024925;28;20049;-75
2021/01/27 00:57:41;;;;;;;46.00;29.67;;;;;;;2.79;63.69;99363.41;5026123;28;20099;-71
2021/01/27 01:00:17;;;;;;;43.90;27.20;;;;;;;2.81;63.59;99358.09;5024693;28;20637;-73
2021/01/27 01:02:43;;;;;;;52.50;32.80;;;;;;;2.78;63.61;99353.06;5024947;28;20052;-74
2021/01/27 01:05:13;;;;;;;42.03;25.42;;;;;;;2.79;63.47;99352.13;5026949;28;20253;-72
2021/01/27 01:07:43;;;;;;;43.92;31.90;;;;;;;2.87;63.40;99355.16;5024493;28;20584;-70
2021/01/27 01:10:12;;;;;;;49.30;34.88;;;;;;;2.81;63.38;99355.47;5025467;28;20099;-78
2021/01/27 01:12:38;;;;;;;44.53;35.22;;;;;;;2.77;63.29;99354.81;5021091;28;20093;-75
2021/01/27 01:15:06;;;;;;;47.92;33.60;;;;;;;2.79;63.58;99355.59;5026291;28;20064;-77
2021/01/27 01:17:32;;;;;;;46.35;29.95;;;;;;;2.83;63.44;99364.91;5027047;28;20045;-73
2021/01/27 01:19:59;;;;;;;46.20;34.75;;;;;;;2.87;63.10;99355.16;5025162;28;20111;-73
2021/01/27 01:22:25;;;;;;;48.08;32.17;;;;;;;2.86;62.88;99354.31;5025963;28;20095;-71
2021/01/27 01:24:53;;;;;;;38.60;21.48;;;;;;;2.95;62.99;99355.56;5026817;28;20050;-75
2021/01/27 01:27:19;;;;;;;42.33;27.02;;;;;;;2.97;62.72;99355.47;5024280;28;20052;-73
2021/01/27 01:29:46;;;;;;;42.22;26.00;;;;;;;3.00;62.55;99356.16;5024588;28;20103;-73
2021/01/27 01:32:14;;;;;;;46.50;31.42;;;;;;;2.97;62.66;99355.47;5025119;28;20056;-79
2021/01/27 01:34:40;;;;;;;46.60;35.50;;;;;;;2.99;62.38;99353.63;5024155;28;20060;-74
2021/01/27 01:37:07;;;;;;;46.00;34.38;;;;;;;2.92;62.06;99347.94;5025216;28;20650;-74
2021/01/27 01:39:33;;;;;;;41.72;29.80;;;;;;;2.89;62.53;99366.34;5038015;28;20057;-73
2021/01/27 01:42:01;;;;;;;41.80;31.35;;;;;;;2.93;62.48;99351.38;5042756;28;20053;-73
2021/01/27 01:44:27;;;;;;;42.13;30.63;;;;;;;2.91;62.00;99361.03;5044583;28;20053;-72
2021/01/27 01:46:54;;;;;;;39.80;30.70;;;;;;;2.90;62.28;99356.75;5044789;28;20078;-73
2021/01/27 01:49:20;;;;;;;44.92;31.30;;;;;;;2.92;62.39;99357.50;5043680;28;20045;-74
2021/01/27 01:51:55;;;;;;;44.15;33.90;;;;;;;2.91;62.75;99350.63;5044562;28;20098;-72
2021/01/27 01:54:27;;;;;;;47.13;27.75;;;;;;;2.87;62.76;99358.59;5045737;28;20136;-73
2021/01/27 01:56:55;;;;;;;40.30;30.17;;;;;;;2.93;62.44;99349.59;5048485;28;20210;-74
2021/01/27 01:59:24;;;;;;;42.83;30.48;;;;;;;2.95;62.65;99365.16;5049165;28;20052;-73
2021/01/27 02:01:58;;;;;;;44.03;33.47;;;;;;;2.90;62.91;99343.69;5047814;28;20056;-71
2021/01/27 02:04:27;;;;;;;40.33;29.42;;;;;;;2.92;62.75;99360.09;5048559;28;20060;-74
2021/01/27 02:06:53;;;;;;;43.28;32.45;;;;;;;2.94;62.34;99360.88;5048325;28;20045;-73
2021/01/27 02:09:20;;;;;;;40.55;22.73;;;;;;;3.02;62.14;99358.69;5048047;28;20045;-71
2021/01/27 02:11:58;;;;;;;40.20;25.42;;;;;;;3.00;62.37;99355.31;5047189;28;20442;-73
2021/01/27 02:14:45;;;;;;;36.35;27.92;;;;;;;2.99;62.17;99343.19;5048990;28;20053;-72
2021/01/27 02:17:23;;;;;;;39.22;27.80;;;;;;;2.98;62.30;99354.56;5048263;28;20049;-73
2021/01/27 02:20:11;;;;;;;41.15;28.63;;;;;;;2.97;62.39;99345.91;5048588;28;20105;-73
2021/01/27 02:23:17;;;;;;;34.38;20.25;;;;;;;2.99;62.37;99354.47;5048786;28;20575;-75
2021/01/27 02:26:25;;;;;;;37.90;28.00;;;;;;;2.99;62.67;99351.00;5048056;28;20437;-74
2021/01/27 02:29:30;;;;;;;36.65;28.17;;;;;;;2.89;62.79;99353.31;5047437;28;20110;-74
2021/01/27 02:32:34;;;;;;;39.60;24.27;;;;;;;2.93;62.74;99364.41;4986791;28;20058;-76
2021/01/27 02:35:10;;;;;;;38.53;29.75;;;;;;;2.86;62.79;99349.09;4986292;28;20062;-73
2021/01/27 02:37:45;;;;;;;34.08;23.38;;;;;;;2.92;62.61;99355.75;4986738;28;20100;-72
2021/01/27 02:40:17;;;;;;;37.58;24.33;;;;;;;3.01;62.08;99357.00;4985507;28;20046;-73
2021/01/27 02:42:50;;;;;;;33.35;21.08;;;;;;;3.02;61.79;99348.25;4987482;28;20703;-74
2021/01/27 02:45:23;;;;;;;32.92;20.08;;;;;;;3.02;61.79;99356.91;4984723;28;20050;-73
2021/01/27 02:47:55;;;;;;;30.70;21.95;;;;;;;3.03;61.65;99360.38;4985798;28;20050;-74
2021/01/27 02:50:28;;;;;;;34.85;24.10;;;;;;;3.05;61.33;99353.28;4986050;28;20055;-73
2021/01/27 02:53:00;;;;;;;42.92;26.95;;;;;;;3.00;61.26;99356.16;4986466;28;20050;-77
2021/01/27 02:55:33;;;;;;;29.70;21.35;;;;;;;2.96;60.87;99362.47;4986601;28;20054;-74
2021/01/27 02:58:05;;;;;;;33.70;22.80;;;;;;;2.98;60.86;99351.97;4986623;28;20138;-75
2021/01/27 03:00:35;;;;;;;29.52;18.10;;;;;;;2.97;60.94;99355.47;4985576;28;20566;-75
2021/01/27 03:03:06;;;;;;;30.83;16.98;;;;;;;2.97;60.90;99361.56;4985362;28;20062;-72
2021/01/27 03:05:38;;;;;;;29.58;19.67;;;;;;;2.99;61.01;99364.06;4985283;28;20050;-73
2021/01/27 03:08:13;;;;;;;27.83;22.10;;;;;;;2.99;60.11;99370.13;5002880;28;20093;-74
2021/01/27 03:10:41;;;;;;;;;;;;;;;3.16;59.52;99363.97;5047194;28;20037;-74
2021/01/27 03:13:08;;;;;;;25.83;18.13;;;;;;;2.94;60.26;99366.09;5047608;28;20015;-74
2021/01/27 03:15:38;;;;;;;27.40;18.48;;;;;;;2.90;60.15;99377.59;5046602;28;20049;-74
2021/01/27 03:18:10;;;;;;;29.20;16.92;;;;;;;2.90;60.14;99367.16;5048215;28;20493;-73
2021/01/27 03:20:41;;;;;;;24.88;18.27;;;;;;;2.89;59.56;99368.94;5046552;28;20095;-74
2021/01/27 03:23:14;;;;;;;25.42;14.73;;;;;;;2.92;59.47;99375.75;5046925;28;20539;-75
2021/01/27 03:25:49;;;;;;;19.73;14.82;;;;;;;2.89;59.49;99368.13;5048125;28;20057;-74
2021/01/27 03:28:23;;;;;;;21.08;16.27;;;;;;;2.95;59.06;99378.19;5046747;28;20056;-74
2021/01/27 03:30:51;;;;;;;24.00;14.02;;;;;;;2.92;58.69;99373.16;5047810;28;20052;-72
2021/01/27 03:33:22;;;;;;;30.95;15.73;;;;;;;2.91;58.52;99374.09;5047288;28;20049;-74
2021/01/27 03:35:52;;;;;;;21.52;15.52;;;;;;;2.92;58.57;99378.34;5046527;28;20056;-73
2021/01/27 03:38:23;;;;;;;18.77;14.20;;;;;;;2.93;58.37;99380.06;5048726;28;20056;-72
2021/01/27 03:40:54;;;;;;;18.63;12.82;;;;;;;2.86;58.15;99369.09;5046061;28;20044;-74
2021/01/27 03:43:27;;;;;;;16.90;11.10;;;;;;;2.90;58.09;99378.47;5048448;28;20056;-75
2021/01/27 03:46:00;;;;;;;19.02;12.48;;;;;;;2.90;58.27;99378.47;5048295;28;20059;-74
2021/01/27 03:48:36;;;;;;;17.23;11.73;;;;;;;2.91;58.26;99384.53;5048146;28;20098;-73
2021/01/27 03:51:03;;;;;;;15.45;12.55;;;;;;;2.95;57.83;99373.81;5047016;28;20067;-70
2021/01/27 03:53:31;;;;;;;20.08;11.15;;;;;;;2.93;57.81;99380.06;5046825;28;20051;-71
2021/01/27 03:56:05;;;;;;;17.10;10.68;;;;;;;2.94;58.03;99387.81;5047882;28;20516;-73
2021/01/27 03:58:35;;;;;;;22.88;13.93;;;;;;;2.98;58.16;99391.09;5053001;28;20118;-73
2021/01/27 04:01:06;;;;;;;26.15;18.17;;;;;;;2.97;57.90;99382.44;5069187;28;20040;-73
2021/01/27 04:03:33;;;;;;;24.05;14.18;;;;;;;2.92;58.37;99376.63;5070421;28;20090;-72
2021/01/27 04:05:59;;;;;;;39.88;23.52;;;;;;;2.85;58.55;99383.09;5069729;28;20066;-73
2021/01/27 04:08:27;;;;;;;21.85;15.38;;;;;;;2.91;58.60;99389.75;5068315;28;20045;-74
2021/01/27 04:10:54;;;;;;;29.23;17.42;;;;;;;2.92;58.10;99389.66;5066310;28;20173;-74
2021/01/27 04:13:20;;;;;;;20.08;13.90;;;;;;;2.92;58.41;99388.78;5059079;28;20044;-73
2021/01/27 04:15:47;;;;;;;25.15;17.65;;;;;;;2.92;58.21;99389.66;5051805;28;20064;-73
2021/01/27 04:18:13;;;;;;;18.55;12.75;;;;;;;2.91;57.89;99393.19;5058588;28;20619;-74
2021/01/27 04:20:40;;;;;;;32.28;19.33;;;;;;;2.91;57.54;99385.34;5059138;28;20045;-72
2021/01/27 04:23:07;;;;;;;18.00;11.95;;;;;;;2.88;57.80;99390.72;5058387;28;20052;-72
2021/01/27 04:25:34;;;;;;;22.35;9.95;;;;;;;2.94;57.39;99387.81;5056175;28;20053;-72
2021/01/27 04:28:01;;;;;;;16.95;12.48;;;;;;;2.90;57.90;99386.28;5058187;28;20045;-79
2021/01/27 04:30:30;;;;;;;21.20;12.25;;;;;;;2.91;57.42;99382.75;5052977;28;20106;-72
2021/01/27 04:32:58;;;;;;;22.20;13.85;;;;;;;2.91;57.55;99387.97;5053265;28;20049;-74
2021/01/27 04:35:25;;;;;;;23.52;11.40;;;;;;;2.92;57.11;99388.78;5050248;28;20072;-71
2021/01/27 04:37:52;;;;;;;18.75;11.40;;;;;;;2.85;57.72;99383.94;5047338;28;20041;-73
2021/01/27 04:40:24;;;;;;;18.08;11.10;;;;;;;2.92;57.32;99384.44;5047541;28;20642;-72
2021/01/27 04:42:52;;;;;;;17.00;9.45;;;;;;;2.96;57.49;99390.34;5047136;28;20134;-76
2021/01/27 04:45:19;;;;;;;23.40;14.75;;;;;;;2.94;57.60;99382.59;5046965;28;20408;-74
2021/01/27 04:47:53;;;;;;;18.73;10.05;;;;;;;2.94;57.90;99386.97;5046389;28;20064;-73
2021/01/27 04:50:27;;;;;;;18.52;10.85;;;;;;;2.99;57.83;99395.34;5047527;28;20605;-72
2021/01/27 04:53:20;;;;;;;37.10;21.88;;;;;;;2.95;58.54;99386.03;5046072;28;20045;-70
2021/01/27 04:56:06;;;;;;;18.13;13.20;;;;;;;2.98;58.27;99384.09;5046926;28;20056;-75
2021/01/27 04:58:37;;;;;;;;;;;;;;;3.15;58.07;99380.56;5046640;28;20045;-73
2021/01/27 05:01:26;;;;;;;33.80;19.98;;;;;;;2.96;58.74;99387.72;5046558;28;19974;-71
2021/01/27 05:04:10;;;;;;;18.55;11.07;;;;;;;3.01;58.88;99385.72;5048570;28;20428;-76
2021/01/27 05:06:42;;;;;;;20.83;12.90;;;;;;;2.98;58.91;99384.09;5047249;28;20057;-78
2021/01/27 05:09:14;;;;;;;18.02;12.82;;;;;;;2.92;58.95;99388.78;5048032;28;20049;-77
2021/01/27 05:11:42;;;;;;;16.23;12.75;;;;;;;2.96;58.66;99385.13;5046933;28;20075;-72
2021/01/27 05:14:10;;;;;;;25.65;16.00;;;;;;;2.93;59.19;99391.31;5047847;28;20714;-73
2021/01/27 05:16:36;;;;;;;22.45;15.38;;;;;;;2.91;59.00;99392.34;5047203;28;20052;-72
2021/01/27 05:19:07;;;;;;;18.58;11.77;;;;;;;2.96;59.37;99390.34;5049652;28;20048;-78
2021/01/27 05:21:35;;;;;;;29.27;15.20;;;;;;;3.01;59.04;99391.75;5029740;28;20216;-73
2021/01/27 05:24:02;;;;;;;18.70;13.93;;;;;;;2.96;59.10;99390.34;5049090;28;20057;-77
2021/01/27 05:26:35;;;;;;;15.13;11.00;;;;;;;2.96;59.52;99390.34;5049973;28;20489;-76
2021/01/27 05:29:05;;;;;;;18.67;13.07;;;;;;;2.98;58.87;99389.31;5048369;28;20125;-76
2021/01/27 05:31:57;;;;;;;21.27;16.02;;;;;;;2.94;59.25;99376.53;5050134;28;20056;-71
2021/01/27 05:34:28;;;;;;;20.98;15.73;;;;;;;2.89;59.16;99378.56;5052296;28;20473;-72
2021/01/27 05:36:55;;;;;;;21.05;14.02;;;;;;;2.83;59.20;99396.22;5051686;28;20044;-75
2021/01/27 05:39:28;;;;;;;19.67;14.10;;;;;;;2.85;59.11;99398.75;5049104;28;20406;-70
2021/01/27 05:42:21;;;;;;;20.05;14.95;;;;;;;2.90;59.06;99395.88;5047676;28;20045;-71
2021/01/27 05:44:48;;;;;;;20.10;14.93;;;;;;;2.84;58.90;99397.03;5041138;28;20045;-74
2021/01/27 05:47:34;;;;;;;20.13;14.10;;;;;;;2.77;59.04;99393.91;5049621;28;20238;-71
2021/01/27 05:50:22;;;;;;;18.02;13.50;;;;;;;2.78;59.20;99397.38;5049718;28;20057;-69
2021/01/27 05:52:49;;;;;;;19.98;13.57;;;;;;;2.75;59.25;99400.16;5048124;28;20045;-69
2021/01/27 05:55:17;;;;;;;19.38;13.95;;;;;;;2.73;59.38;99397.63;5049709;28;20045;-70
2021/01/27 05:57:57;;;;;;;15.55;12.13;;;;;;;2.76;58.77;99392.25;5047946;28;20098;-71
2021/01/27 06:00:26;;;;;;;17.05;12.68;;;;;;;2.72;58.87;99411.59;5031088;28;20071;-73
2021/01/27 06:02:57;;;;;;;16.60;10.73;;;;;;;2.75;58.94;99405.38;5050163;28;20051;-70
2021/01/27 06:05:36;;;;;;;21.42;12.65;;;;;;;2.71;59.32;99403.84;5051664;28;20055;-68
2021/01/27 06:08:11;;;;;;;17.42;11.80;;;;;;;2.73;58.62;99405.44;5049795;28;20139;-77
2021/01/27 06:10:39;;;;;;;20.20;11.40;;;;;;;2.74;59.04;99414.97;5049400;28;20075;-73
2021/01/27 06:13:27;;;;;;;16.42;11.25;;;;;;;2.76;58.87;99428.75;5048779;28;20508;-70
2021/01/27 06:15:55;;;;;;;18.00;12.48;;;;;;;2.68;58.99;99412.66;5050591;28;20041;-74
2021/01/27 06:18:28;;;;;;;20.48;13.60;;;;;;;2.68;59.02;99420.50;5050165;28;20126;-78
2021/01/27 06:21:13;;;;;;;19.95;12.77;;;;;;;2.70;59.09;99420.41;5053264;28;20049;-74
2021/01/27 06:23:55;;;;;;;19.65;12.30;;;;;;;2.66;59.02;99425.78;5051358;28;20056;-74
2021/01/27 06:27:15;;;;;;;14.20;9.82;;;;;;;2.68;58.92;99420.50;5052121;28;20057;-76
2021/01/27 06:30:10;;;;;;;18.00;11.77;;;;;;;2.68;58.95;99433.53;4965535;28;20055;-72
2021/01/27 06:33:01;;;;;;;18.42;11.93;;;;;;;2.73;58.85;99428.91;4967558;28;20087;-79
2021/01/27 06:35:40;;;;;;;15.15;11.23;;;;;;;2.71;58.80;99435.97;4966104;28;20125;-75
2021/01/27 06:38:26;;;;;;;16.15;10.90;;;;;;;2.71;58.52;99435.16;4967082;28;20043;-71
2021/01/27 06:41:16;;;;;;;16.40;11.45;;;;;;;2.69;59.20;99440.44;4962179;28;20047;-73
2021/01/27 06:44:07;;;;;;;15.35;9.88;;;;;;;2.74;59.10;99441.03;4962619;28;20054;-71
2021/01/27 06:46:53;;;;;;;17.60;10.02;;;;;;;2.78;58.64;99444.31;4963163;28;20130;-72
2021/01/27 06:49:57;;;;;;;15.35;8.35;;;;;;;2.84;58.66;99451.81;4961795;28;20077;-75
2021/01/27 06:52:56;;;;;;;17.73;10.85;;;;;;;2.84;58.35;99446.59;4961659;28;20913;-71
2021/01/27 06:55:34;;;;;;;18.02;12.43;;;;;;;2.75;58.76;99455.75;4958629;28;20090;-71
2021/01/27 06:58:32;;;;;;;17.50;11.18;;;;;;;2.75;58.84;99455.75;4958551;28;20047;-71
2021/01/27 07:01:18;;;;;;;17.55;10.70;;;;;;;2.75;58.77;99457.53;5023427;28;20098;-70
2021/01/27 07:04:14;;;;;;;15.77;9.57;;;;;;;2.73;58.92;99457.59;5024789;28;20115;-71
2021/01/27 07:07:06;;;;;;;17.83;10.65;;;;;;;2.72;58.44;99445.50;5042146;28;20055;-71
2021/01/27 07:10:06;;;;;;;14.77;10.18;;;;;;;2.69;58.78;99463.91;5041598;28;20049;-71
2021/01/27 07:12:38;;;;;;;15.50;8.82;;;;;;;2.70;58.81;99468.19;5021145;28;20046;-71
2021/01/27 07:15:23;;;;;;;15.23;10.27;;;;;;;2.74;58.58;99459.28;5022470;28;20053;-71
2021/01/27 07:18:21;;;;;;;13.88;10.00;;;;;;;2.70;58.51;99462.13;5034977;28;20062;-70
2021/01/27 07:20:55;;;;;;;15.52;10.38;;;;;;;2.71;58.65;99462.06;5042665;28;20122;-69
2021/01/27 07:23:28;;;;;;;17.92;10.80;;;;;;;2.71;58.53;99459.44;5040277;28;20604;-71
2021/01/27 07:26:06;;;;;;;21.23;11.23;;;;;;;2.73;58.82;99457.59;5042520;28;20106;-71
2021/01/27 07:28:41;;;;;;;14.85;11.20;;;;;;;2.76;58.61;99457.44;5045461;28;20041;-70
2021/01/27 07:31:15;;;;;;;17.70;11.32;;;;;;;2.74;58.60;99450.59;5040773;28;20794;-71
2021/01/27 07:33:52;;;;;;;14.63;8.60;;;;;;;2.82;58.60;99467.53;5043237;28;20044;-73
2021/01/27 07:36:33;;;;;;;18.05;11.57;;;;;;;2.86;58.60;99458.66;5026377;28;20250;-71
2021/01/27 07:39:02;;;;;;;17.35;10.13;;;;;;;2.85;58.45;99464.78;5042781;28;20049;-70
2021/01/27 07:41:41;;;;;;;20.70;10.45;;;;;;;2.83;58.20;99463.19;5040478;28;20053;-71
2021/01/27 07:44:15;;;;;;;15.20;10.48;;;;;;;2.87;57.96;99457.72;5040663;28;20048;-71
2021/01/27 07:46:49;;;;;;;14.50;9.93;;;;;;;2.84;58.62;99470.91;5040752;28;20064;-70
2021/01/27 07:49:22;;;;;;;19.52;10.00;;;;;;;2.87;58.32;99464.69;5040424;28;20047;-71
2021/01/27 07:51:54;;;;;;;12.02;9.07;;;;;;;2.89;58.30;99462.00;5039073;28;20049;-68
2021/01/27 07:54:26;;;;;;;19.15;10.77;;;;;;;2.86;58.09;99476.91;5040719;28;20045;-71
2021/01/27 07:56:59;;;;;;;14.23;10.63;;;;;;;2.93;58.20;99479.19;5039344;28;20049;-73
2021/01/27 07:59:32;;;;;;;20.98;11.15;;;;;;;2.98;57.95;99471.94;5040430;28;20067;-71
2021/01/27 08:02:06;;;;;;;12.77;7.53;;;;;;;3.08;57.60;99473.16;5042392;28;20060;-70
2021/01/27 08:04:39;;;;;;;17.85;11.25;;;;;;;3.03;57.99;99481.22;5042219;28;20051;-71
2021/01/27 08:07:16;;;;;;;18.42;12.10;;;;;;;2.99;58.11;99478.84;5041338;28;20073;-74
2021/01/27 08:09:43;;;;;;;17.85;10.45;;;;;;;3.00;57.94;99483.97;5040847;28;20053;-71
2021/01/27 08:12:18;;;;;;;16.05;10.30;;;;;;;3.02;58.02;99486.50;5039027;28;20045;-69
2021/01/27 08:15:01;;;;;;;17.30;11.82;;;;;;;2.99;58.20;99473.63;5042002;28;20195;-69
2021/01/27 08:18:01;;;;;;;21.38;10.82;;;;;;;2.94;58.26;99471.28;5039051;28;20045;-72
2021/01/27 08:20:31;;;;;;;19.42;10.82;;;;;;;2.96;58.25;99492.06;5042801;28;20121;-73
2021/01/27 08:23:00;;;;;;;15.73;9.00;;;;;;;2.95;58.28;99474.72;5045497;28;20061;-75
2021/01/27 08:25:53;;;;;;;17.65;12.27;;;;;;;2.96;58.03;99479.03;5041540;28;20076;-74
2021/01/27 08:28:25;;;;;;;17.30;10.05;;;;;;;2.95;58.34;99474.72;5042979;28;20505;-73
2021/01/27 08:31:17;;;;;;;17.30;12.20;;;;;;;2.98;58.41;99479.78;5043781;28;20052;-74
2021/01/27 08:33:56;;;;;;;17.73;11.50;;;;;;;2.98;58.27;99485.00;4980945;28;20125;-74
2021/01/27 08:37:10;;;;;;;18.27;12.85;;;;;;;3.04;58.30;99476.81;4980422;28;20430;-78
2021/01/27 08:39:37;;;;;;;18.08;10.35;;;;;;;3.08;57.67;99482.72;4980087;28;20058;-73
2021/01/27 08:42:21;;;;;;;19.70;12.70;;;;;;;3.03;58.15;99489.03;4976657;28;20051;-69
2021/01/27 08:44:50;;;;;;;22.23;12.88;;;;;;;3.04;57.79;99497.69;4978586;28;20050;-72
2021/01/27 08:47:28;;;;;;;19.65;13.27;;;;;;;3.04;58.01;99495.94;4980260;28;20309;-74
2021/01/27 08:49:57;;;;;;;20.40;13.48;;;;;;;3.08;58.27;99495.75;4961856;28;20077;-71
2021/01/27 08:52:43;;;;;;;20.30;13.32;;;;;;;3.13;58.24;99493.75;4976948;28;20118;-72
2021/01/27 08:55:37;;;;;;;28.90;15.90;;;;;;;3.11;58.00;99500.81;4979034;28;20042;-73
2021/01/27 08:58:42;;;;;;;23.45;17.50;;;;;;;3.15;58.33;99507.56;4977302;28;20054;-71
2021/01/27 09:01:33;;;;;;;26.88;15.00;;;;;;;3.15;58.00;99510.16;4960130;28;20047;-73
2021/01/27 09:04:06;;;;;;;18.75;13.23;;;;;;;3.36;57.75;99510.78;4959710;28;20055;-73
2021/01/27 09:06:50;;;;;;;20.23;15.27;;;;;;;3.29;57.25;99510.25;4959931;28;20513;-72
2021/01/27 09:09:27;;;;;;;17.55;11.43;;;;;;;3.21;57.57;99523.72;4964019;28;20046;-71
2021/01/27 09:11:58;;;;;;;24.88;14.32;;;;;;;3.16;58.12;99523.13;4997548;28;20053;-75
2021/01/27 09:14:25;;;;;;;26.88;15.02;;;;;;;3.14;58.04;99517.16;5002513;28;20145;-70
2021/01/27 09:16:54;;;;;;;23.13;15.77;;;;;;;3.07;58.40;99518.41;5000953;28;20415;-72
2021/01/27 09:19:23;;;;;;;21.15;14.57;;;;;;;3.06;58.11;99521.94;4997692;28;20077;-69
2021/01/27 09:22:01;;;;;;;20.33;15.45;;;;;;;3.12;57.94;99515.56;5000691;28;20121;-68
2021/01/27 09:24:32;;;;;;;18.52;11.25;;;;;;;3.13;58.12;99519.84;4998069;28;20274;-70
2021/01/27 09:26:58;;;;;;;23.48;14.55;;;;;;;3.14;58.10;99518.94;4997517;28;20050;-69
2021/01/27 09:29:27;;;;;;;27.25;18.38;;;;;;;3.13;58.12;99519.84;4999743;28;20077;-71
2021/01/27 09:31:55;;;;;;;25.40;16.85;;;;;;;3.07;58.33;99518.41;5021174;28;20041;-68
2021/01/27 09:34:26;;;;;;;21.02;15.55;;;;;;;3.08;58.57;99514.91;5040769;28;20055;-69
2021/01/27 09:37:00;;;;;;;23.30;15.63;;;;;;;3.08;58.50;99514.91;5041940;28;20063;-70
2021/01/27 09:39:29;;;;;;;21.27;15.90;;;;;;;3.16;58.35;99522.31;5040150;28;20658;-69
2021/01/27 09:41:58;;;;;;;24.25;15.77;;;;;;;3.20;58.21;99519.44;5036557;28;20311;-70
2021/01/27 09:44:35;;;;;;;23.52;18.08;;;;;;;3.14;58.43;99519.78;5040174;28;20104;-70
2021/01/27 09:47:15;;;;;;;21.42;16.48;;;;;;;3.15;58.43;99524.06;5024665;28;20394;-70
2021/01/27 09:49:47;;;;;;;23.13;13.35;;;;;;;3.22;58.55;99524.56;5046191;28;20839;-68
2021/01/27 09:52:15;;;;;;;21.30;16.13;;;;;;;3.28;58.24;99502.50;5026172;28;20412;-69
2021/01/27 09:54:44;;;;;;;20.90;15.63;;;;;;;3.19;57.99;99520.38;5042862;28;20186;-70
2021/01/27 09:57:14;;;;;;;23.45;16.70;;;;;;;3.18;58.40;99518.66;5045222;28;20113;-71
2021/01/27 09:59:41;;;;;;;24.23;16.15;;;;;;;3.21;58.36;99512.47;5055212;28;20078;-70
2021/01/27 10:02:12;;;;;;;21.00;14.07;;;;;;;3.22;58.59;99522.81;5050228;28;20041;-70
2021/01/27 10:04:40;;;;;;;20.10;15.40;;;;;;;3.25;58.04;99516.59;5059591;28;20053;-72
2021/01/27 10:07:16;;;;;;;21.73;15.40;;;;;;;3.37;57.80;99517.69;5057319;28;20048;-68
2021/01/27 10:09:51;;;;;;;20.35;16.02;;;;;;;3.42;57.60;99515.66;5059228;28;20044;-70
2021/01/27 10:12:27;;;;;;;23.27;16.63;;;;;;;3.42;57.50;99513.91;5058768;28;20193;-70
2021/01/27 10:15:02;;;;;;;19.95;14.43;;;;;;;3.50;57.43;99518.69;5059859;28;20048;-70
2021/01/27 10:17:31;;;;;;;18.55;14.00;;;;;;;3.41;57.55;99516.59;5062208;28;20132;-69
2021/01/27 10:20:08;;;;;;;19.52;14.75;;;;;;;3.45;57.68;99518.94;5048078;28;20805;-69
2021/01/27 10:22:38;;;;;;;19.85;15.60;;;;;;;3.47;57.33;99518.84;5043916;28;20057;-66
2021/01/27 10:25:25;;;;;;;20.25;12.80;;;;;;;3.46;57.44;99511.97;5048955;28;20547;-68
2021/01/27 10:28:03;;;;;;;20.30;14.20;;;;;;;3.51;57.49;99519.53;5035099;28;20049;-67
2021/01/27 10:30:44;;;;;;;23.00;13.43;;;;;;;3.56;57.51;99515.72;5047124;28;20048;-68
2021/01/27 10:33:44;;;;;;;19.42;15.55;;;;;;;3.61;57.28;99520.72;5044132;28;20045;-66
2021/01/27 10:36:28;;;;;;;17.15;14.63;;;;;;;3.71;56.22;99515.81;5037972;28;20045;-70
2021/01/27 10:39:19;;;;;;;19.63;13.05;;;;;;;3.67;56.61;99517.75;5042671;28;20188;-70
2021/01/27 10:41:48;;;;;;;18.13;13.27;;;;;;;3.58;56.64;99524.34;5044973;28;20618;-69
2021/01/27 10:44:29;;;;;;;17.92;13.80;;;;;;;3.56;56.50;99520.97;5062968;28;20124;-76
2021/01/27 10:46:59;;;;;;;17.92;14.15;;;;;;;3.57;56.72;99530.50;5042383;28;20049;-71
2021/01/27 10:49:26;;;;;;;21.80;16.13;;;;;;;3.49;57.02;99532.66;5050818;28;20045;-71
2021/01/27 10:51:54;;;;;;;20.52;14.73;;;;;;;3.47;57.57;99524.06;5050422;28;20045;-72
2021/01/27 10:54:23;;;;;;;20.02;15.77;;;;;;;3.47;57.22;99513.63;5052165;28;20138;-74
2021/01/27 10:56:55;;;;;;;21.00;14.40;;;;;;;3.45;57.15;99518.94;5049696;28;20048;-69
2021/01/27 10:59:22;;;;;;;17.98;13.30;;;;;;;3.47;56.91;99525.84;5052497;28;20063;-70
2021/01/27 11:01:49;;;;;;;21.48;16.10;;;;;;;3.45;56.97;99520.72;5047457;28;20512;-71
2021/01/27 11:04:15;;;;;;;23.00;14.27;;;;;;;3.54;56.20;99521.97;5041090;28;20044;-70
2021/01/27 11:06:43;;;;;;;17.67;13.85;;;;;;;3.55;56.18;99524.50;5040223;28;20132;-70
2021/01/27 11:09:11;;;;;;;25.35;16.02;;;;;;;3.63;56.65;99527.53;5040871;28;20105;-71
2021/01/27 11:11:38;;;;;;;22.38;14.27;;;;;;;3.61;56.38;99534.59;5040191;28;20048;-71
2021/01/27 11:14:04;;;;;;;23.27;13.82;;;;;;;3.63;56.39;99532.75;5041678;28;20739;-69
2021/01/27 11:16:31;;;;;;;17.85;13.77;;;;;;;3.62;56.23;99528.47;5042031;28;20049;-72
2021/01/27 11:18:58;;;;;;;17.58;11.80;;;;;;;3.62;56.29;99531.09;5041352;28;20044;-73
2021/01/27 11:21:24;;;;;;;14.50;11.95;;;;;;;3.62;56.19;99528.47;5043315;28;20037;-72
2021/01/27 11:23:53;;;;;;;17.25;11.48;;;;;;;3.61;55.97;99529.38;5045748;28;20140;-72
2021/01/27 11:26:20;;;;;;;18.48;11.20;;;;;;;3.64;56.15;99533.63;5041678;28;20052;-71
2021/01/27 11:28:48;;;;;;;19.42;13.35;;;;;;;3.72;56.05;99530.56;5042214;28;20061;-72
2021/01/27 11:31:16;;;;;;;15.77;12.32;;;;;;;3.66;55.57;99529.13;5043656;28;20040;-70
2021/01/27 11:33:44;;;;;;;15.55;13.68;;;;;;;3.63;55.47;99530.13;5042296;28;20045;-71
2021/01/27 11:36:10;;;;;;;17.33;11.38;;;;;;;3.58;56.00;99529.56;5041849;28;20218;-70
2021/01/27 11:38:38;;;;;;;18.65;12.18;;;;;;;3.60;56.41;99538.16;5040749;28;20041;-69
2021/01/27 11:41:04;;;;;;;20.10;13.45;;;;;;;3.62;56.00;99536.31;5038243;28;20049;-69
2021/01/27 11:43:32;;;;;;;20.95;12.68;;;;;;;3.63;55.95;99534.53;5039742;28;20402;-71
2021/01/27 11:45:58;;;;;;;20.60;15.40;;;;;;;3.56;55.98;99544.47;5037326;28;20059;-70
2021/01/27 11:48:24;;;;;;;17.52;12.10;;;;;;;3.58;55.39;99529.56;5036720;28;20624;-71
2021/01/27 11:50:51;;;;;;;13.18;9.75;;;;;;;3.61;55.31;99534.59;5038404;28;20044;-71
2021/01/27 11:53:17;;;;;;;21.27;14.95;;;;;;;3.64;55.36;99534.44;5038520;28;20037;-69
2021/01/27 11:55:44;;;;;;;19.63;13.48;;;;;;;3.64;55.13;99529.22;5037439;28;20049;-70
2021/01/27 11:58:10;;;;;;;19.65;12.57;;;;;;;3.59;55.37;99531.25;5039046;28;20045;-70